Time;durP1;ratioP1;P1;durP2;ratioP2;P2;SDS_P1;SDS_P2;PMS_P1;PMS_P2;Temp;Humidity;BMP_temperature;BMP_pressure;BME280_temperature;BME280_humidity;BME280_pressure;Samples;Min_cycle;Max_cycle;Signal;HPM_P1;HPM_P2
2021/12/14 00:00:58;;;;;;;;;;;8.90;99.90;;;;;;5090664;28;20385;-78
2021/12/14 00:03:25;;;;;;;;;;;8.90;99.90;;;;;;5105759;28;19967;-79
2021/12/14 00:05:51;;;;;;;;;;;9.00;99.90;;;;;;5109113;28;19926;-79
2021/12/14 00:08:17;;;;;;;;;;;8.90;99.90;;;;;;5114551;28;20006;-79
2021/12/14 00:10:59;;;;;;;;;;;8.90;99.90;;;;;;5081316;28;20131;-80
2021/12/14 00:16:07;;;;;;;;;;;8.90;99.90;;;;;;5082820;28;19927;-79
2021/12/14 00:18:34;;;;;;;;;;;8.90;99.90;;;;;;5088324;28;20385;-80
2021/12/14 00:21:03;;;;;;;;;;;8.90;99.90;;;;;;5105761;27;19928;-79
2021/12/14 00:26:23;;;;;;;;;;;8.90;99.90;;;;;;5059439;28;19973;-79
2021/12/14 00:28:50;;;;;;;;;;;8.80;99.90;;;;;;5072851;28;19920;-80
2021/12/14 00:31:18;;;;;;;;;;;8.80;99.90;;;;;;5114446;28;20017;-79
2021/12/14 00:33:46;;;;;;;;;;;8.80;99.90;;;;;;5080907;28;19931;-79
2021/12/14 00:36:13;;;;;;;;;;;8.80;99.90;;;;;;5086741;28;19989;-79
2021/12/14 00:38:40;;;;;;;;;;;8.80;99.90;;;;;;5098023;28;20197;-79
2021/12/14 00:41:08;;;;;;;;;;;8.80;99.90;;;;;;5089677;28;19920;-79
2021/12/14 00:43:34;;;;;;;;;;;8.80;99.90;;;;;;5073526;28;19923;-79
2021/12/14 00:46:00;;;;;;;;;;;8.80;99.90;;;;;;5084427;28;19920;-79
2021/12/14 00:48:27;;;;;;;;;;;8.80;99.90;;;;;;5075551;28;19920;-78
2021/12/14 00:50:54;;;;;;;;;;;8.80;99.90;;;;;;5090155;28;19976;-79
2021/12/14 00:53:20;;;;;;;;;;;8.80;99.90;;;;;;5089518;28;19947;-79
2021/12/14 00:55:47;;;;;;;;;;;8.80;99.90;;;;;;5094171;28;19923;-78
2021/12/14 00:58:13;;;;;;;;;;;8.90;99.90;;;;;;5076368;28;19981;-80
2021/12/14 01:00:41;;;;;;;;;;;8.80;99.90;;;;;;5088459;28;19920;-79
2021/12/14 01:03:06;;;;;;;;;;;8.80;99.90;;;;;;5091581;28;19926;-79
2021/12/14 01:05:35;;;;;;;;;;;8.80;99.90;;;;;;5088959;28;20163;-79
2021/12/14 01:08:02;;;;;;;;;;;8.80;99.90;;;;;;5085504;28;19998;-79
2021/12/14 01:10:29;;;;;;;;;;;8.80;99.90;;;;;;5091922;28;19926;-79
2021/12/14 01:13:01;;;;;;;;;;;8.80;99.90;;;;;;5095144;28;19924;-80
2021/12/14 01:15:42;;;;;;;;;;;8.80;99.90;;;;;;5100806;28;19932;-78
2021/12/14 01:18:27;;;;;;;;;;;8.80;99.90;;;;;;5090550;28;19926;-78
2021/12/14 01:20:59;;;;;;;;;;;8.80;99.90;;;;;;5108164;28;20399;-79
2021/12/14 01:23:30;;;;;;;;;;;8.90;99.90;;;;;;5089713;28;19924;-80
2021/12/14 01:26:01;;;;;;;;;;;8.80;99.90;;;;;;5087160;28;20006;-79
2021/12/14 01:28:28;;;;;;;;;;;8.80;99.90;;;;;;5074622;28;20346;-80
2021/12/14 01:31:21;;;;;;;;;;;8.80;99.90;;;;;;5095153;28;19931;-80
2021/12/14 01:33:43;;;;;;;;;;;8.80;99.90;;;;;;5085594;28;19951;-79
2021/12/14 01:36:24;;;;;;;;;;;8.90;99.90;;;;;;5068827;28;19932;-79
2021/12/14 01:39:10;;;;;;;;;;;8.80;99.90;;;;;;5077781;28;19928;-79
2021/12/14 01:41:36;;;;;;;;;;;8.80;99.90;;;;;;5095083;28;19920;-79
2021/12/14 01:44:01;;;;;;;;;;;8.90;99.90;;;;;;5073702;28;19965;-79
2021/12/14 01:46:35;;;;;;;;;;;8.90;99.90;;;;;;5101489;28;19934;-79
2021/12/14 01:49:37;;;;;;;;;;;8.80;99.90;;;;;;5008635;28;20422;-80
2021/12/14 01:52:11;;;;;;;;;;;8.80;99.90;;;;;;5073911;28;19920;-77
2021/12/14 01:54:38;;;;;;;;;;;8.80;99.90;;;;;;5096429;28;20039;-79
2021/12/14 01:57:07;;;;;;;;;;;8.80;99.90;;;;;;5091224;28;19924;-79
2021/12/14 01:59:36;;;;;;;;;;;8.90;99.90;;;;;;5074327;28;20464;-80
2021/12/14 02:04:45;;;;;;;;;;;8.80;99.90;;;;;;5089014;28;19920;-79
2021/12/14 02:07:13;;;;;;;;;;;8.80;99.90;;;;;;5096592;28;19965;-80
2021/12/14 02:09:42;;;;;;;;;;;8.80;99.90;;;;;;5086917;28;19964;-79
2021/12/14 02:12:09;;;;;;;;;;;8.80;99.90;;;;;;5081474;28;19927;-80
2021/12/14 02:14:35;;;;;;;;;;;8.80;99.90;;;;;;5107853;28;19931;-79
2021/12/14 02:17:02;;;;;;;;;;;8.80;99.90;;;;;;5095820;28;19920;-79
2021/12/14 02:19:30;;;;;;;;;;;8.80;99.90;;;;;;5101660;28;19928;-79
2021/12/14 02:21:57;;;;;;;;;;;8.80;99.90;;;;;;5094012;28;19957;-80
2021/12/14 02:24:24;;;;;;;;;;;8.80;99.90;;;;;;5086215;28;20352;-78
2021/12/14 02:26:56;;;;;;;;;;;8.80;99.90;;;;;;5081998;28;19920;-79
2021/12/14 02:29:24;;;;;;;;;;;8.80;99.90;;;;;;5091234;28;19923;-79
2021/12/14 02:31:50;;;;;;;;;;;8.80;99.90;;;;;;5084629;28;19920;-79
2021/12/14 02:34:15;;;;;;;;;;;8.80;99.90;;;;;;5077311;28;19955;-80
2021/12/14 02:36:43;;;;;;;;;;;8.80;99.90;;;;;;5070746;28;19966;-79
2021/12/14 02:39:23;;;;;;;;;;;8.80;99.90;;;;;;5070937;28;20309;-79
2021/12/14 02:41:50;;;;;;;;;;;8.80;99.90;;;;;;5067362;28;20289;-79
2021/12/14 02:44:19;;;;;;;;;;;8.80;99.90;;;;;;5070379;28;20002;-79
2021/12/14 02:46:46;;;;;;;;;;;8.80;99.90;;;;;;5066364;28;19943;-80
2021/12/14 02:49:14;;;;;;;;;;;8.80;99.90;;;;;;5089385;28;19927;-80
2021/12/14 02:51:41;;;;;;;;;;;8.80;99.90;;;;;;5097196;28;19933;-79
2021/12/14 02:54:08;;;;;;;;;;;8.80;99.90;;;;;;5087508;28;20358;-80
2021/12/14 02:56:36;;;;;;;;;;;8.80;99.90;;;;;;5085171;28;19999;-80
2021/12/14 02:59:04;;;;;;;;;;;8.80;99.90;;;;;;5087603;28;19924;-80
2021/12/14 03:01:31;;;;;;;;;;;8.80;99.90;;;;;;5081412;28;19926;-80
2021/12/14 03:03:59;;;;;;;;;;;8.80;99.90;;;;;;5096103;28;19920;-79
2021/12/14 03:06:25;;;;;;;;;;;8.80;99.90;;;;;;5094436;28;19960;-79
2021/12/14 03:09:07;;;;;;;;;;;8.80;99.90;;;;;;5080725;28;19973;-79
2021/12/14 03:11:33;;;;;;;;;;;8.80;99.90;;;;;;5090361;28;19924;-78
2021/12/14 03:14:00;;;;;;;;;;;8.80;99.90;;;;;;5096079;28;19981;-79
2021/12/14 03:16:28;;;;;;;;;;;8.80;99.90;;;;;;5095321;28;19924;-79
2021/12/14 03:18:54;;;;;;;;;;;8.80;99.90;;;;;;5110686;28;20311;-80
2021/12/14 03:21:21;;;;;;;;;;;8.80;99.90;;;;;;5093083;28;20343;-79
2021/12/14 03:23:48;;;;;;;;;;;8.80;99.90;;;;;;5110813;28;19921;-79
2021/12/14 03:26:15;;;;;;;;;;;8.80;99.90;;;;;;5096552;28;19977;-79
2021/12/14 03:28:45;;;;;;;;;;;8.80;99.90;;;;;;5072038;28;19980;-79
2021/12/14 03:31:25;;;;;;;;;;;8.80;99.90;;;;;;5089043;28;19970;-79
2021/12/14 03:33:53;;;;;;;;;;;8.80;99.90;;;;;;5095934;28;20014;-79
2021/12/14 03:36:20;;;;;;;;;;;8.70;99.90;;;;;;5114656;28;19919;-80
2021/12/14 03:38:51;;;;;;;;;;;8.70;99.90;;;;;;5100815;28;20296;-80
2021/12/14 03:41:19;;;;;;;;;;;8.70;99.90;;;;;;5090787;28;20351;-79
2021/12/14 03:43:50;;;;;;;;;;;8.70;99.90;;;;;;5097592;28;19941;-79
2021/12/14 03:46:16;;;;;;;;;;;8.70;99.90;;;;;;5091661;28;19999;-78
2021/12/14 03:48:44;;;;;;;;;;;8.70;99.90;;;;;;5088625;28;19971;-79
2021/12/14 03:51:09;;;;;;;;;;;8.70;99.90;;;;;;5095899;28;21422;-79
2021/12/14 03:53:35;;;;;;;;;;;8.70;99.90;;;;;;5084989;28;19932;-80
2021/12/14 03:56:03;;;;;;;;;;;8.70;99.90;;;;;;5110667;28;19953;-79
2021/12/14 03:58:33;;;;;;;;;;;8.70;99.90;;;;;;5083971;28;19924;-79
2021/12/14 04:01:00;;;;;;;;;;;8.70;99.90;;;;;;5095393;28;19920;-79
2021/12/14 04:03:34;;;;;;;;;;;8.70;99.90;;;;;;5094842;28;19924;-80
2021/12/14 04:06:14;;;;;;;;;;;8.70;99.90;;;;;;5094625;28;19932;-79
2021/12/14 04:08:40;;;;;;;;;;;8.70;99.90;;;;;;5091352;28;19924;-80
2021/12/14 04:11:07;;;;;;;;;;;8.70;99.90;;;;;;5115196;27;19934;-79
2021/12/14 04:13:35;;;;;;;;;;;8.60;99.90;;;;;;5103213;28;20027;-79
2021/12/14 04:16:03;;;;;;;;;;;8.60;99.90;;;;;;5085122;28;19923;-80
2021/12/14 04:18:29;;;;;;;;;;;8.60;99.90;;;;;;5077586;28;19920;-79
2021/12/14 04:20:56;;;;;;;;;;;8.60;99.90;;;;;;5095912;28;20330;-79
2021/12/14 04:23:26;;;;;;;;;;;8.60;99.90;;;;;;5109525;28;19931;-80
2021/12/14 04:25:54;;;;;;;;;;;8.60;99.90;;;;;;5099560;28;19973;-79
2021/12/14 04:28:22;;;;;;;;;;;8.60;99.90;;;;;;5072648;28;19973;-79
2021/12/14 04:30:50;;;;;;;;;;;8.60;99.90;;;;;;5083531;28;19932;-79
2021/12/14 04:33:25;;;;;;;;;;;8.60;99.90;;;;;;5099760;28;19928;-79
2021/12/14 04:35:51;;;;;;;;;;;8.60;99.90;;;;;;5100816;28;19919;-79
2021/12/14 04:38:24;;;;;;;;;;;8.60;99.90;;;;;;5109905;28;19943;-78
2021/12/14 04:51:57;;;;;;;;;;;8.60;99.90;;;;;;5089029;28;19972;-80
2021/12/14 04:54:25;;;;;;;;;;;8.60;99.90;;;;;;5109486;28;20397;-79
2021/12/14 04:56:53;;;;;;;;;;;8.60;99.90;;;;;;5097712;28;19920;-78
2021/12/14 04:59:23;;;;;;;;;;;8.60;99.90;;;;;;5096520;28;20293;-79
2021/12/14 05:01:49;;;;;;;;;;;8.60;99.90;;;;;;5082407;28;19920;-79
2021/12/14 05:04:29;;;;;;;;;;;8.60;99.90;;;;;;5093618;28;19955;-79
2021/12/14 05:07:03;;;;;;;;;;;8.60;99.90;;;;;;5096884;28;19924;-79
2021/12/14 05:09:31;;;;;;;;;;;8.60;99.90;;;;;;5090151;28;19920;-79
2021/12/14 05:12:17;;;;;;;;;;;8.60;99.90;;;;;;5100833;28;19949;-79
2021/12/14 05:14:52;;;;;;;;;;;8.60;99.90;;;;;;5095176;28;20458;-79
2021/12/14 05:17:20;;;;;;;;;;;8.60;99.90;;;;;;5098505;28;20196;-79
2021/12/14 05:19:47;;;;;;;;;;;8.60;99.90;;;;;;5094536;28;19926;-80
2021/12/14 05:22:14;;;;;;;;;;;8.60;99.90;;;;;;5089815;28;20424;-79
2021/12/14 05:24:48;;;;;;;;;;;8.60;99.90;;;;;;5102771;28;19920;-80
2021/12/14 05:27:17;;;;;;;;;;;8.70;99.90;;;;;;5081243;28;19928;-80
2021/12/14 05:29:44;;;;;;;;;;;8.70;99.90;;;;;;5066178;28;19928;-79
2021/12/14 05:32:10;;;;;;;;;;;8.60;99.90;;;;;;5088475;28;20363;-80
2021/12/14 05:34:40;;;;;;;;;;;8.60;99.90;;;;;;5087744;28;19971;-79
2021/12/14 05:37:10;;;;;;;;;;;8.60;99.90;;;;;;5071521;28;19919;-80
2021/12/14 05:39:49;;;;;;;;;;;8.60;99.90;;;;;;5075675;28;20372;-79
2021/12/14 05:45:29;;;;;;;;;;;8.60;99.90;;;;;;5089953;28;20006;-80
2021/12/14 05:47:56;;;;;;;;;;;8.60;99.90;;;;;;5089618;28;20008;-79
2021/12/14 05:50:31;;;;;;;;;;;8.60;99.90;;;;;;5089754;28;19920;-79
2021/12/14 05:52:58;;;;;;;;;;;8.50;99.90;;;;;;5094363;28;19963;-79
2021/12/14 05:55:25;;;;;;;;;;;8.50;99.90;;;;;;5077669;28;20379;-80
2021/12/14 05:57:52;;;;;;;;;;;8.50;99.90;;;;;;5094386;28;19969;-80
2021/12/14 06:00:18;;;;;;;;;;;8.50;99.90;;;;;;5074537;28;20381;-79
2021/12/14 06:02:51;;;;;;;;;;;8.50;99.90;;;;;;5087211;28;19924;-79
2021/12/14 06:05:19;;;;;;;;;;;8.60;99.90;;;;;;5095916;28;19920;-79
2021/12/14 06:07:45;;;;;;;;;;;8.60;99.90;;;;;;5088524;28;19926;-78
2021/12/14 06:10:12;;;;;;;;;;;8.50;99.90;;;;;;5107224;28;20368;-79
2021/12/14 06:12:42;;;;;;;;;;;8.50;99.90;;;;;;5098033;28;19969;-79
2021/12/14 06:15:14;;;;;;;;;;;8.50;99.90;;;;;;5080330;28;19955;-79
2021/12/14 06:17:40;;;;;;;;;;;8.50;99.90;;;;;;5078550;28;19977;-80
2021/12/14 06:20:18;;;;;;;;;;;8.50;99.90;;;;;;5096948;28;19924;-79
2021/12/14 06:22:45;;;;;;;;;;;8.50;99.90;;;;;;5072751;28;19920;-79
2021/12/14 06:25:27;;;;;;;;;;;8.50;99.90;;;;;;5086675;28;19920;-79
2021/12/14 06:27:55;;;;;;;;;;;8.50;99.90;;;;;;5093418;28;19920;-79
2021/12/14 06:30:24;;;;;;;;;;;8.50;99.90;;;;;;5114028;28;20345;-80
2021/12/14 06:32:51;;;;;;;;;;;8.50;99.90;;;;;;5080195;28;19928;-79
2021/12/14 06:35:20;;;;;;;;;;;8.50;99.90;;;;;;5095223;28;20683;-79
2021/12/14 06:40:30;;;;;;;;;;;8.50;99.90;;;;;;5085515;28;19925;-80
2021/12/14 06:42:57;;;;;;;;;;;8.50;99.90;;;;;;5092947;28;19920;-79
2021/12/14 06:45:26;;;;;;;;;;;8.50;99.90;;;;;;5077347;28;19931;-80
2021/12/14 06:47:56;;;;;;;;;;;8.50;99.90;;;;;;5093233;28;19935;-79
2021/12/14 06:50:25;;;;;;;;;;;8.50;99.90;;;;;;5077091;28;19928;-79
2021/12/14 06:52:55;;;;;;;;;;;8.50;99.90;;;;;;5090888;28;19931;-79
2021/12/14 06:55:43;;;;;;;;;;;8.50;99.90;;;;;;5094469;28;19928;-79
2021/12/14 06:58:28;;;;;;;;;;;8.50;99.90;;;;;;5084661;28;19919;-79
2021/12/14 07:01:00;;;;;;;;;;;8.50;99.90;;;;;;5090475;28;19928;-80
2021/12/14 07:03:34;;;;;;;;;;;8.50;99.90;;;;;;5094434;28;19923;-79
2021/12/14 07:06:01;;;;;;;;;;;8.50;99.90;;;;;;5091690;28;19991;-79
2021/12/14 07:08:28;;;;;;;;;;;8.50;99.90;;;;;;5074787;28;19999;-79
2021/12/14 07:10:53;;;;;;;;;;;8.50;99.90;;;;;;5092765;28;19966;-80
2021/12/14 07:13:21;;;;;;;;;;;8.50;99.90;;;;;;5110750;28;19938;-80
2021/12/14 07:15:48;;;;;;;;;;;8.50;99.90;;;;;;5075226;28;19939;-78
2021/12/14 07:18:15;;;;;;;;;;;8.50;99.90;;;;;;5057960;28;20373;-79
2021/12/14 07:20:43;;;;;;;;;;;8.50;99.90;;;;;;5089890;28;20404;-78
2021/12/14 07:23:17;;;;;;;;;;;8.50;99.90;;;;;;5100648;28;20925;-78
2021/12/14 07:25:43;;;;;;;;;;;8.50;99.90;;;;;;5104643;28;20362;-78
2021/12/14 07:28:09;;;;;;;;;;;8.50;99.90;;;;;;5080044;28;19958;-79
2021/12/14 07:30:36;;;;;;;;;;;8.50;99.90;;;;;;5107164;28;20353;-80
2021/12/14 07:33:08;;;;;;;;;;;8.50;99.90;;;;;;5103426;28;19985;-79
2021/12/14 07:35:41;;;;;;;;;;;8.50;99.90;;;;;;5103390;28;20385;-79
2021/12/14 07:38:19;;;;;;;;;;;8.50;99.90;;;;;;5102853;28;19927;-78
2021/12/14 07:40:46;;;;;;;;;;;8.50;99.90;;;;;;5085842;28;19950;-79
2021/12/14 07:43:14;;;;;;;;;;;8.60;99.90;;;;;;5093721;28;20015;-78
2021/12/14 07:45:42;;;;;;;;;;;8.60;99.90;;;;;;5087876;28;19931;-78
2021/12/14 07:48:07;;;;;;;;;;;8.60;99.90;;;;;;5073871;28;19923;-79
2021/12/14 07:50:40;;;;;;;;;;;8.60;99.90;;;;;;5107384;28;20316;-78
2021/12/14 07:53:05;;;;;;;;;;;8.60;99.90;;;;;;5088784;28;20403;-78
2021/12/14 07:55:36;;;;;;;;;;;8.60;99.90;;;;;;5086997;28;19924;-79
2021/12/14 07:58:02;;;;;;;;;;;8.60;99.90;;;;;;5105373;28;19924;-78
2021/12/14 08:00:31;;;;;;;;;;;8.60;99.90;;;;;;5097307;28;19920;-79
2021/12/14 08:02:57;;;;;;;;;;;8.60;99.90;;;;;;5076308;28;20011;-79
2021/12/14 08:05:24;;;;;;;;;;;8.60;99.90;;;;;;5107636;28;19923;-78
2021/12/14 08:07:56;;;;;;;;;;;8.60;99.90;;;;;;5108196;28;20270;-78
2021/12/14 08:10:24;;;;;;;;;;;8.60;99.90;;;;;;5092578;28;19935;-78
2021/12/14 08:12:51;;;;;;;;;;;8.60;99.90;;;;;;5108912;28;19962;-79
2021/12/14 08:15:20;;;;;;;;;;;8.60;99.90;;;;;;5103726;28;19942;-79
2021/12/14 08:17:46;;;;;;;;;;;8.60;99.90;;;;;;5092230;28;20009;-80
2021/12/14 08:20:14;;;;;;;;;;;8.70;99.90;;;;;;5093253;28;19932;-79
2021/12/14 08:22:41;;;;;;;;;;;8.70;99.90;;;;;;5090482;28;19934;-78
2021/12/14 08:25:10;;;;;;;;;;;8.70;99.90;;;;;;5105131;28;19924;-79
2021/12/14 08:27:36;;;;;;;;;;;8.70;99.90;;;;;;5104084;27;19928;-79
2021/12/14 08:30:04;;;;;;;;;;;8.70;99.90;;;;;;5107447;28;20312;-78
2021/12/14 08:32:31;;;;;;;;;;;8.70;99.90;;;;;;5087317;28;20335;-79
2021/12/14 08:34:59;;;;;;;;;;;8.70;99.90;;;;;;5089529;28;20372;-78
2021/12/14 08:37:26;;;;;;;;;;;8.80;99.90;;;;;;5088277;28;19932;-78
2021/12/14 08:39:56;;;;;;;;;;;8.80;99.90;;;;;;5090533;28;20385;-78
2021/12/14 08:42:30;;;;;;;;;;;8.80;99.90;;;;;;5085074;28;19969;-78
2021/12/14 08:44:57;;;;;;;;;;;8.80;99.90;;;;;;5085706;28;20351;-79
2021/12/14 08:47:25;;;;;;;;;;;8.80;99.90;;;;;;5089618;28;19927;-78
2021/12/14 08:49:53;;;;;;;;;;;8.80;99.90;;;;;;5071076;28;19919;-79
2021/12/14 08:52:19;;;;;;;;;;;8.90;99.90;;;;;;5074341;28;19963;-78
2021/12/14 08:54:44;;;;;;;;;;;8.90;99.90;;;;;;5088168;28;19966;-78
2021/12/14 08:57:13;;;;;;;;;;;8.90;99.90;;;;;;5088898;28;20337;-78
2021/12/14 08:59:41;;;;;;;;;;;8.90;99.90;;;;;;5090411;28;20014;-78
2021/12/14 09:02:08;;;;;;;;;;;8.90;99.90;;;;;;5074073;28;19967;-78
2021/12/14 09:04:35;;;;;;;;;;;8.90;99.90;;;;;;5072686;28;19923;-78
2021/12/14 09:07:04;;;;;;;;;;;8.90;99.90;;;;;;5090183;28;19933;-78
2021/12/14 09:09:30;;;;;;;;;;;8.90;99.90;;;;;;5089178;28;19930;-79
2021/12/14 09:12:00;;;;;;;;;;;8.90;99.90;;;;;;5091178;28;19920;-79
2021/12/14 09:14:26;;;;;;;;;;;8.90;99.90;;;;;;5074421;28;19919;-78
2021/12/14 09:16:54;;;;;;;;;;;8.90;99.90;;;;;;5089233;28;19980;-79
2021/12/14 09:19:21;;;;;;;;;;;8.90;99.90;;;;;;5104881;28;19924;-77
2021/12/14 09:21:49;;;;;;;;;;;8.90;99.90;;;;;;5086077;28;19924;-79
2021/12/14 09:24:16;;;;;;;;;;;9.00;99.90;;;;;;5075080;28;19924;-78
2021/12/14 09:26:43;;;;;;;;;;;8.90;99.90;;;;;;5087567;28;19931;-78
2021/12/14 09:29:12;;;;;;;;;;;8.90;99.90;;;;;;5072272;28;19932;-79
2021/12/14 09:31:39;;;;;;;;;;;9.00;99.90;;;;;;5072978;28;19928;-79
2021/12/14 09:34:08;;;;;;;;;;;9.00;99.90;;;;;;5085515;28;19928;-79
2021/12/14 09:36:35;;;;;;;;;;;9.00;99.90;;;;;;5072742;28;20481;-79
2021/12/14 09:39:07;;;;;;;;;;;9.00;99.90;;;;;;5088621;28;19965;-79
2021/12/14 09:41:33;;;;;;;;;;;9.00;99.90;;;;;;5105259;27;19924;-79
2021/12/14 09:43:59;;;;;;;;;;;9.00;99.90;;;;;;5101272;28;20373;-78
2021/12/14 09:46:25;;;;;;;;;;;9.10;99.90;;;;;;5085654;28;19920;-79
2021/12/14 09:48:53;;;;;;;;;;;9.10;99.90;;;;;;5088290;28;19927;-78
2021/12/14 09:51:22;;;;;;;;;;;9.10;99.90;;;;;;5089675;28;20378;-79
2021/12/14 09:53:49;;;;;;;;;;;9.10;99.90;;;;;;5105741;28;19982;-79
2021/12/14 09:56:18;;;;;;;;;;;9.20;99.90;;;;;;5073343;28;19938;-78
2021/12/14 09:58:47;;;;;;;;;;;9.20;99.90;;;;;;5075574;28;19924;-79
2021/12/14 10:01:15;;;;;;;;;;;9.20;99.90;;;;;;5093382;28;19984;-79
2021/12/14 10:03:42;;;;;;;;;;;9.20;99.90;;;;;;5103762;27;19924;-78
2021/12/14 10:06:09;;;;;;;;;;;9.20;99.90;;;;;;5066803;28;19950;-79
2021/12/14 10:08:37;;;;;;;;;;;9.10;99.90;;;;;;5075404;28;19923;-79
2021/12/14 10:11:06;;;;;;;;;;;9.10;99.90;;;;;;5093077;28;19923;-79
2021/12/14 10:13:34;;;;;;;;;;;9.20;99.90;;;;;;5086112;28;19928;-79
2021/12/14 10:16:00;;;;;;;;;;;9.10;99.90;;;;;;5095310;28;19924;-80
2021/12/14 10:18:28;;;;;;;;;;;9.10;99.90;;;;;;5071343;28;20337;-79
2021/12/14 10:20:55;;;;;;;;;;;9.20;99.90;;;;;;5084782;28;19931;-78
2021/12/14 10:23:22;;;;;;;;;;;9.20;99.90;;;;;;5081539;28;21452;-79
2021/12/14 10:25:50;;;;;;;;;;;9.20;99.90;;;;;;5089961;28;20006;-79
2021/12/14 10:28:15;;;;;;;;;;;9.20;99.90;;;;;;5102676;28;19923;-79
2021/12/14 10:30:43;;;;;;;;;;;9.20;99.90;;;;;;5070757;28;19934;-79
2021/12/14 10:33:09;;;;;;;;;;;9.20;99.90;;;;;;5073534;28;19931;-79
2021/12/14 10:35:41;;;;;;;;;;;9.20;99.90;;;;;;5104814;28;19928;-78
2021/12/14 10:38:22;;;;;;;;;;;9.20;99.90;;;;;;5106731;28;19932;-79
2021/12/14 10:43:36;;;;;;;;;;;9.20;99.90;;;;;;5091449;28;19932;-78
2021/12/14 10:46:04;;;;;;;;;;;9.20;99.90;;;;;;5066688;28;19927;-79
2021/12/14 10:48:31;;;;;;;;;;;9.20;99.90;;;;;;5105687;28;19959;-79
2021/12/14 10:50:58;;;;;;;;;;;9.20;99.90;;;;;;5073204;28;19924;-79
2021/12/14 10:53:25;;;;;;;;;;;9.20;99.90;;;;;;5103494;28;20400;-79
2021/12/14 10:55:53;;;;;;;;;;;9.20;99.90;;;;;;5082095;28;19993;-79
2021/12/14 10:58:21;;;;;;;;;;;9.20;99.90;;;;;;5105227;28;19970;-79
2021/12/14 11:00:48;;;;;;;;;;;9.20;99.90;;;;;;5099569;28;20328;-79
2021/12/14 11:03:16;;;;;;;;;;;9.20;99.90;;;;;;5090348;28;19931;-79
2021/12/14 11:05:45;;;;;;;;;;;9.10;99.90;;;;;;5095986;28;20019;-79
2021/12/14 11:08:21;;;;;;;;;;;9.10;99.90;;;;;;5092042;28;19919;-79
2021/12/14 11:10:47;;;;;;;;;;;9.10;99.90;;;;;;5076177;28;20018;-79
2021/12/14 11:13:14;;;;;;;;;;;9.10;99.90;;;;;;5092335;28;19920;-80
2021/12/14 11:15:41;;;;;;;;;;;9.10;99.90;;;;;;5096121;28;19924;-79
2021/12/14 11:18:09;;;;;;;;;;;9.10;99.90;;;;;;5089268;28;20587;-78
2021/12/14 11:20:37;;;;;;;;;;;9.10;99.90;;;;;;5091360;28;19920;-79
2021/12/14 11:23:05;;;;;;;;;;;9.10;99.90;;;;;;5116786;28;19969;-78
2021/12/14 11:25:32;;;;;;;;;;;9.20;99.90;;;;;;5100416;28;20012;-78
2021/12/14 11:28:00;;;;;;;;;;;9.10;99.90;;;;;;5116637;28;20452;-79
2021/12/14 11:30:30;;;;;;;;;;;9.10;99.90;;;;;;5091354;28;19926;-79
2021/12/14 11:33:08;;;;;;;;;;;9.10;99.90;;;;;;5083427;28;19923;-78
2021/12/14 11:35:35;;;;;;;;;;;9.20;99.90;;;;;;5098562;28;19932;-78
2021/12/14 11:38:07;;;;;;;;;;;9.20;99.90;;;;;;5100895;28;19981;-79
2021/12/14 11:40:33;;;;;;;;;;;9.20;99.90;;;;;;5114120;28;19927;-79
2021/12/14 11:43:08;;;;;;;;;;;9.20;99.90;;;;;;5099957;28;19944;-78
2021/12/14 11:45:37;;;;;;;;;;;9.20;99.90;;;;;;5089671;28;19935;-78
2021/12/14 11:48:04;;;;;;;;;;;9.30;99.90;;;;;;5093091;28;19932;-78
2021/12/14 11:50:33;;;;;;;;;;;9.20;99.90;;;;;;5093920;28;20002;-80
2021/12/14 11:53:00;;;;;;;;;;;9.20;99.90;;;;;;5094212;28;20688;-78
2021/12/14 11:55:32;;;;;;;;;;;9.20;99.90;;;;;;5105348;28;20007;-78
2021/12/14 11:58:03;;;;;;;;;;;9.20;99.90;;;;;;5088834;28;19927;-79
2021/12/14 12:00:28;;;;;;;;;;;9.30;99.90;;;;;;5096711;28;19927;-79
2021/12/14 12:02:55;;;;;;;;;;;9.20;99.90;;;;;;5074796;28;19927;-78
2021/12/14 12:05:22;;;;;;;;;;;9.30;99.90;;;;;;5092533;28;19981;-78
2021/12/14 12:10:36;;;;;;;;;;;9.30;99.90;;;;;;5091995;28;19920;-78
2021/12/14 12:13:02;;;;;;;;;;;9.30;99.90;;;;;;5090345;28;19930;-78
2021/12/14 12:15:28;;;;;;;;;;;9.30;99.90;;;;;;5108706;28;19927;-77
2021/12/14 12:17:56;;;;;;;;;;;9.30;99.90;;;;;;5085681;28;20343;-78
2021/12/14 12:20:24;;;;;;;;;;;9.30;99.90;;;;;;5069711;28;20035;-79
2021/12/14 12:22:52;;;;;;;;;;;9.30;99.90;;;;;;5072644;28;19931;-78
2021/12/14 12:25:19;;;;;;;;;;;9.30;99.90;;;;;;5090169;28;19923;-78
2021/12/14 12:27:47;;;;;;;;;;;9.30;99.90;;;;;;5105052;28;19974;-78
2021/12/14 12:30:38;;;;;;;;;;;9.30;99.90;;;;;;5091909;28;20412;-79
2021/12/14 12:33:07;;;;;;;;;;;9.30;99.90;;;;;;5107087;28;19927;-78
2021/12/14 12:35:36;;;;;;;;;;;9.40;99.90;;;;;;5090469;28;20022;-78
2021/12/14 12:38:17;;;;;;;;;;;9.30;99.90;;;;;;5107386;28;19932;-78
2021/12/14 12:40:48;;;;;;;;;;;9.30;99.90;;;;;;5087132;28;19932;-78
2021/12/14 12:43:15;;;;;;;;;;;9.30;99.90;;;;;;5107489;28;20007;-78
2021/12/14 12:45:50;;;;;;;;;;;9.30;99.90;;;;;;5089276;28;19927;-78
2021/12/14 12:48:36;;;;;;;;;;;9.30;99.90;;;;;;5073523;28;20374;-77
2021/12/14 12:51:03;;;;;;;;;;;9.30;99.90;;;;;;5090566;28;19923;-78
2021/12/14 12:53:28;;;;;;;;;;;9.40;99.90;;;;;;5089227;28;19928;-78
2021/12/14 12:56:02;;;;;;;;;;;9.40;99.90;;;;;;5090225;28;20392;-78
2021/12/14 12:58:27;;;;;;;;;;;9.40;99.90;;;;;;5073184;28;19920;-78
2021/12/14 13:00:56;;;;;;;;;;;9.40;99.90;;;;;;5092079;28;19976;-78
2021/12/14 13:03:25;;;;;;;;;;;9.40;99.90;;;;;;5110384;28;20388;-78
2021/12/14 13:05:55;;;;;;;;;;;9.40;99.90;;;;;;5110900;28;19919;-78
2021/12/14 13:08:24;;;;;;;;;;;9.40;99.90;;;;;;5093543;28;19920;-78
2021/12/14 13:10:53;;;;;;;;;;;9.40;99.90;;;;;;5107101;28;19923;-78
2021/12/14 13:13:20;;;;;;;;;;;9.50;99.90;;;;;;5096017;28;20386;-78
2021/12/14 13:15:52;;;;;;;;;;;9.40;99.90;;;;;;5094367;28;19968;-78
2021/12/14 13:18:32;;;;;;;;;;;9.40;99.90;;;;;;5085118;28;20400;-79
2021/12/14 13:21:00;;;;;;;;;;;9.40;99.90;;;;;;5048296;28;19920;-79
2021/12/14 13:23:41;;;;;;;;;;;9.50;99.90;;;;;;5091485;28;19928;-79
2021/12/14 13:26:21;;;;;;;;;;;9.50;99.90;;;;;;5090676;28;20026;-77
2021/12/14 13:28:47;;;;;;;;;;;9.50;99.90;;;;;;5072067;28;19924;-78
2021/12/14 13:31:22;;;;;;;;;;;9.50;99.90;;;;;;5092412;28;20308;-80
2021/12/14 13:33:47;;;;;;;;;;;9.50;99.90;;;;;;5094093;28;19920;-79
2021/12/14 13:36:13;;;;;;;;;;;9.50;99.90;;;;;;5108419;28;19935;-79
2021/12/14 13:38:39;;;;;;;;;;;9.50;99.90;;;;;;5079553;28;20324;-79
2021/12/14 13:41:14;;;;;;;;;;;9.50;99.90;;;;;;5076279;28;20304;-79
2021/12/14 13:43:40;;;;;;;;;;;9.50;99.90;;;;;;5093330;28;20397;-79
2021/12/14 13:46:06;;;;;;;;;;;9.50;99.90;;;;;;5109741;28;19959;-79
2021/12/14 13:48:33;;;;;;;;;;;9.60;99.90;;;;;;5091989;28;20365;-78
2021/12/14 13:51:02;;;;;;;;;;;9.50;99.90;;;;;;5076654;28;21257;-79
2021/12/14 13:53:28;;;;;;;;;;;9.60;99.90;;;;;;5093609;28;20464;-79
2021/12/14 13:55:54;;;;;;;;;;;9.50;99.90;;;;;;5090197;28;20062;-79
2021/12/14 13:58:23;;;;;;;;;;;9.60;99.90;;;;;;5108986;28;19920;-78
2021/12/14 14:00:53;;;;;;;;;;;9.50;99.90;;;;;;5074365;28;20007;-78
2021/12/14 14:03:22;;;;;;;;;;;9.50;99.90;;;;;;5107154;28;19920;-78
2021/12/14 14:05:48;;;;;;;;;;;9.60;99.90;;;;;;5090118;28;19943;-79
2021/12/14 14:08:17;;;;;;;;;;;9.60;99.90;;;;;;5089672;28;20300;-78
2021/12/14 14:10:44;;;;;;;;;;;9.50;99.90;;;;;;5107023;28;19970;-78
2021/12/14 14:13:11;;;;;;;;;;;9.60;99.90;;;;;;5076175;28;19920;-79
2021/12/14 14:15:40;;;;;;;;;;;9.60;99.90;;;;;;5097334;28;19985;-79
2021/12/14 14:18:09;;;;;;;;;;;9.60;99.90;;;;;;5088534;28;19930;-79
2021/12/14 14:20:35;;;;;;;;;;;9.60;99.90;;;;;;5085439;28;19928;-79
2021/12/14 14:23:05;;;;;;;;;;;9.60;99.90;;;;;;5087105;28;19924;-79
2021/12/14 14:25:31;;;;;;;;;;;9.60;99.90;;;;;;5077405;28;19919;-79
2021/12/14 14:27:58;;;;;;;;;;;9.60;99.90;;;;;;5089555;28;19920;-79
2021/12/14 14:30:33;;;;;;;;;;;9.60;99.90;;;;;;5105882;28;19980;-79
2021/12/14 14:33:09;;;;;;;;;;;9.60;99.90;;;;;;5109739;28;19927;-79
2021/12/14 14:35:39;;;;;;;;;;;9.60;99.90;;;;;;5110835;28;19935;-79
2021/12/14 14:38:20;;;;;;;;;;;9.60;99.90;;;;;;5092478;28;19942;-79
2021/12/14 14:40:45;;;;;;;;;;;9.60;99.90;;;;;;5092919;28;20342;-79
2021/12/14 14:43:11;;;;;;;;;;;9.60;99.90;;;;;;5092658;28;19955;-79
2021/12/14 14:45:36;;;;;;;;;;;9.60;99.90;;;;;;5109572;28;20395;-79
2021/12/14 14:48:17;;;;;;;;;;;9.60;99.90;;;;;;5092512;28;20281;-79
2021/12/14 14:50:43;;;;;;;;;;;9.60;99.90;;;;;;5093330;28;19953;-79
2021/12/14 14:53:10;;;;;;;;;;;9.60;99.90;;;;;;5091186;28;20047;-79
2021/12/14 14:55:39;;;;;;;;;;;9.60;99.90;;;;;;5088518;28;19932;-79
2021/12/14 14:58:07;;;;;;;;;;;9.60;99.90;;;;;;5088215;28;19931;-79
2021/12/14 15:00:50;;;;;;;;;;;9.60;99.90;;;;;;5103512;28;19920;-79
2021/12/14 15:03:19;;;;;;;;;;;9.60;99.90;;;;;;5087190;28;19920;-79
2021/12/14 15:05:48;;;;;;;;;;;9.60;99.90;;;;;;5086918;28;20297;-81
2021/12/14 15:08:20;;;;;;;;;;;9.60;99.90;;;;;;5101516;28;20386;-79
2021/12/14 15:10:46;;;;;;;;;;;9.60;99.90;;;;;;5084950;28;21666;-78
2021/12/14 15:13:18;;;;;;;;;;;9.60;99.90;;;;;;5092940;28;20299;-79